createdAt,value
2018-08-20T00:00:38.764Z,14.57
2018-08-20T00:01:38.773Z,14.54
2018-08-20T00:02:38.837Z,14.51
2018-08-20T00:03:38.867Z,14.50
2018-08-20T00:04:38.806Z,14.50
2018-08-20T00:05:38.873Z,14.46
2018-08-20T00:06:38.805Z,14.44
2018-08-20T00:07:38.870Z,14.43
2018-08-20T00:08:38.807Z,14.42
2018-08-20T00:09:38.873Z,14.42
2018-08-20T00:10:38.810Z,14.39
2018-08-20T00:11:38.804Z,14.39
2018-08-20T00:12:38.874Z,14.36
2018-08-20T00:13:38.805Z,14.35
2018-08-20T00:14:38.801Z,14.33
2018-08-20T00:15:38.900Z,14.32
2018-08-20T00:16:38.897Z,14.32
2018-08-20T00:17:38.877Z,14.31
2018-08-20T00:18:38.878Z,14.31
2018-08-20T00:19:38.880Z,14.28
2018-08-20T00:20:38.812Z,14.28
2018-08-20T00:21:38.881Z,14.27
2018-08-20T00:22:38.834Z,14.27
2018-08-20T00:23:38.782Z,14.24
2018-08-20T00:24:38.802Z,14.24
2018-08-20T00:25:38.875Z,14.22
2018-08-20T00:26:38.793Z,14.22
2018-08-20T00:27:38.872Z,14.25
2018-08-20T00:28:38.874Z,14.27
2018-08-20T00:29:38.873Z,14.27
2018-08-20T00:30:38.787Z,14.27
2018-08-20T00:31:38.837Z,14.27
2018-08-20T00:32:38.905Z,14.27
2018-08-20T00:33:38.786Z,14.29
2018-08-20T00:34:38.857Z,14.31
2018-08-20T00:35:38.880Z,14.31
2018-08-20T00:36:38.878Z,14.32
2018-08-20T00:37:38.882Z,14.33
2018-08-20T00:38:38.861Z,14.32
2018-08-20T00:39:38.797Z,14.32
2018-08-20T00:40:38.859Z,14.35
2018-08-20T00:41:38.754Z,14.36
2018-08-20T00:42:38.878Z,14.38
2018-08-20T00:43:38.828Z,14.36
2018-08-20T00:44:38.820Z,14.39
2018-08-20T00:45:38.897Z,14.43
2018-08-20T00:46:38.927Z,14.44
2018-08-20T00:47:38.828Z,14.44
2018-08-20T00:48:38.900Z,14.44
2018-08-20T00:49:38.830Z,14.44
2018-08-20T00:50:38.903Z,14.44
2018-08-20T00:51:38.846Z,14.47
2018-08-20T00:52:38.836Z,14.50
2018-08-20T00:53:38.868Z,14.51
2018-08-20T00:54:38.874Z,14.54
2018-08-20T00:55:38.838Z,14.53
2018-08-20T00:56:38.858Z,14.54
2018-08-20T00:57:38.810Z,14.55
2018-08-20T00:58:38.808Z,14.55
2018-08-20T00:59:38.770Z,14.58
2018-08-20T01:00:38.805Z,14.58
2018-08-20T01:01:38.792Z,14.60
2018-08-20T01:02:38.875Z,14.62
2018-08-20T01:03:38.873Z,14.66
2018-08-20T01:04:38.858Z,14.71
2018-08-20T01:05:38.831Z,14.75
2018-08-20T01:06:38.820Z,14.80
2018-08-20T01:07:38.914Z,14.87
2018-08-20T01:08:38.812Z,14.95
2018-08-20T01:09:38.908Z,14.96
2018-08-20T01:10:38.877Z,15.02
2018-08-20T01:11:38.827Z,15.03
2018-08-20T01:12:38.911Z,15.06
2018-08-20T01:13:38.845Z,15.07
2018-08-20T01:14:38.920Z,15.07
2018-08-20T01:15:38.867Z,15.11
2018-08-20T01:16:38.857Z,15.18
2018-08-20T01:17:38.919Z,15.19
2018-08-20T01:18:38.853Z,15.19
2018-08-20T01:19:38.922Z,15.22
2018-08-20T01:20:38.925Z,15.24
2018-08-20T01:21:38.925Z,15.24
2018-08-20T01:22:38.923Z,15.22
2018-08-20T01:23:38.884Z,15.24
2018-08-20T01:24:38.909Z,15.22
2018-08-20T01:25:38.851Z,15.25
2018-08-20T01:26:38.893Z,15.24
2018-08-20T01:27:38.786Z,15.26
2018-08-20T01:28:38.831Z,15.26
2018-08-20T01:29:38.793Z,15.26
2018-08-20T01:30:38.894Z,15.28
2018-08-20T01:31:38.817Z,15.28
2018-08-20T01:32:38.888Z,15.29
2018-08-20T01:33:38.943Z,15.29
2018-08-20T01:34:38.857Z,15.28
2018-08-20T01:35:38.932Z,15.28
2018-08-20T01:36:38.865Z,15.28
2018-08-20T01:37:38.976Z,15.28
2018-08-20T01:38:38.960Z,15.29
2018-08-20T01:39:38.934Z,15.29
2018-08-20T01:40:38.870Z,15.31
2018-08-20T01:41:38.937Z,15.32
2018-08-20T01:42:38.875Z,15.33
2018-08-20T01:43:38.938Z,15.33
2018-08-20T01:44:38.874Z,15.35
2018-08-20T01:45:38.838Z,15.37
2018-08-20T01:46:38.941Z,15.36
2018-08-20T01:47:38.941Z,15.40
2018-08-20T01:48:38.942Z,15.42
2018-08-20T01:49:38.941Z,15.46
2018-08-20T01:50:39.100Z,15.47
2018-08-20T01:51:38.959Z,15.51
2018-08-20T01:52:38.872Z,15.54
2018-08-20T01:53:38.945Z,15.57
2018-08-20T01:54:39.137Z,15.61
2018-08-20T01:55:38.848Z,15.64
2018-08-20T01:56:38.935Z,15.66
2018-08-20T01:57:38.847Z,15.72
2018-08-20T01:58:38.825Z,15.75
2018-08-20T01:59:38.853Z,15.77
2018-08-20T02:00:38.915Z,15.79
2018-08-20T02:01:38.858Z,15.80
2018-08-20T02:02:38.938Z,15.83
2018-08-20T02:03:38.945Z,15.84
2018-08-20T02:04:38.892Z,15.88
2018-08-20T02:05:38.953Z,15.91
2018-08-20T02:06:38.885Z,15.95
2018-08-20T02:07:38.955Z,15.95
2018-08-20T02:08:38.887Z,16.00
2018-08-20T02:09:38.965Z,16.03
2018-08-20T02:10:38.887Z,16.05
2018-08-20T02:11:38.847Z,16.06
2018-08-20T02:12:38.888Z,16.09
2018-08-20T02:13:38.957Z,16.13
2018-08-20T02:14:38.973Z,16.16
2018-08-20T02:15:38.858Z,16.18
2018-08-20T02:16:38.858Z,16.21
2018-08-20T02:17:38.916Z,16.21
2018-08-20T02:18:38.975Z,16.25
2018-08-20T02:19:38.815Z,16.27
2018-08-20T02:20:38.862Z,16.31
2018-08-20T02:21:38.905Z,16.35
2018-08-20T02:22:38.887Z,16.36
2018-08-20T02:23:38.924Z,16.39
2018-08-20T02:24:38.966Z,16.39
2018-08-20T02:25:38.854Z,16.41
2018-08-20T02:26:38.899Z,16.44
2018-08-20T02:27:38.969Z,16.48
2018-08-20T02:28:38.902Z,16.51
2018-08-20T02:29:38.901Z,16.51
2018-08-20T02:30:43.373Z,16.54
2018-08-20T02:31:38.989Z,16.55
2018-08-20T02:32:38.903Z,16.57
2018-08-20T02:33:38.902Z,16.59
2018-08-20T02:34:38.919Z,16.61
2018-08-20T02:35:38.876Z,16.62
2018-08-20T02:36:38.962Z,16.63
2018-08-20T02:37:38.881Z,16.63
2018-08-20T02:38:38.876Z,16.65
2018-08-20T02:39:38.972Z,16.65
2018-08-20T02:40:38.968Z,16.65
2018-08-20T02:41:38.946Z,16.66
2018-08-20T02:42:38.841Z,16.68
2018-08-20T02:43:38.980Z,16.68
2018-08-20T02:44:38.913Z,16.69
2018-08-20T02:45:38.928Z,16.69
2018-08-20T02:46:38.980Z,16.70
2018-08-20T02:47:38.980Z,16.70
2018-08-20T02:48:38.981Z,16.72
2018-08-20T02:49:38.866Z,16.70
2018-08-20T02:50:38.915Z,16.70
2018-08-20T02:51:38.984Z,16.70
2018-08-20T02:52:38.915Z,16.70
2018-08-20T02:53:38.916Z,16.70
2018-08-20T02:54:38.958Z,16.70
2018-08-20T02:55:38.868Z,16.72
2018-08-20T02:56:38.975Z,16.72
2018-08-20T02:57:38.979Z,16.73
2018-08-20T02:58:38.974Z,16.76
2018-08-20T02:59:38.990Z,16.76
2018-08-20T03:00:38.893Z,16.77
2018-08-20T03:01:38.905Z,16.79
2018-08-20T03:02:38.873Z,16.79
2018-08-20T03:03:38.983Z,16.80
2018-08-20T03:04:38.870Z,16.81
2018-08-20T03:05:38.880Z,16.81
2018-08-20T03:06:38.855Z,16.83
2018-08-20T03:07:38.955Z,16.84
2018-08-20T03:08:38.925Z,16.85
2018-08-20T03:09:38.923Z,16.85
2018-08-20T03:10:38.956Z,16.84
2018-08-20T03:11:38.892Z,16.85
2018-08-20T03:12:38.953Z,16.85
2018-08-20T03:13:38.956Z,16.85
2018-08-20T03:14:39.005Z,16.88
2018-08-20T03:15:39.004Z,16.92
2018-08-20T03:16:38.933Z,16.92
2018-08-20T03:17:38.940Z,16.94
2018-08-20T03:18:39.003Z,16.95
2018-08-20T03:19:38.945Z,16.97
2018-08-20T03:20:39.005Z,16.98
2018-08-20T03:21:38.940Z,16.99
2018-08-20T03:22:38.938Z,16.99
2018-08-20T03:23:39.008Z,17.01
2018-08-20T03:24:38.941Z,17.01
2018-08-20T03:25:39.012Z,17.02
2018-08-20T03:26:38.942Z,17.03
2018-08-20T03:27:39.010Z,17.05
2018-08-20T03:28:39.012Z,17.06
2018-08-20T03:29:38.947Z,17.08
2018-08-20T03:30:39.013Z,17.08
2018-08-20T03:31:39.016Z,17.09
2018-08-20T03:32:38.948Z,17.12
2018-08-20T03:33:39.017Z,17.13
2018-08-20T03:34:38.882Z,17.13
2018-08-20T03:35:38.945Z,17.14
2018-08-20T03:36:38.987Z,17.20
2018-08-20T03:37:39.004Z,17.21
2018-08-20T03:38:38.924Z,17.21
2018-08-20T03:39:38.886Z,17.22
2018-08-20T03:40:38.988Z,17.24
2018-08-20T03:41:38.920Z,17.25
2018-08-20T03:42:38.890Z,17.26
2018-08-20T03:43:38.920Z,17.28
2018-08-20T03:44:38.932Z,17.29
2018-08-20T03:45:39.021Z,17.29
2018-08-20T03:46:38.947Z,17.31
2018-08-20T03:47:38.995Z,17.31
2018-08-20T03:48:38.926Z,17.32
2018-08-20T03:49:38.996Z,17.33
2018-08-20T03:50:39.013Z,17.32
2018-08-20T03:51:38.959Z,17.33
2018-08-20T03:52:39.017Z,17.33
2018-08-20T03:53:38.898Z,17.35
2018-08-20T03:54:39.028Z,17.35
2018-08-20T03:55:38.965Z,17.33
2018-08-20T03:56:39.033Z,17.33
2018-08-20T03:57:39.031Z,17.32
2018-08-20T03:58:39.038Z,17.35
2018-08-20T03:59:39.039Z,17.35
2018-08-20T04:00:39.036Z,17.35
2018-08-20T04:01:38.969Z,17.35
2018-08-20T04:02:39.036Z,17.35
2018-08-20T04:03:38.969Z,17.35
2018-08-20T04:04:39.038Z,17.35
2018-08-20T04:05:38.970Z,17.35
2018-08-20T04:06:38.970Z,17.35
2018-08-20T04:07:39.041Z,17.35
2018-08-20T04:08:38.976Z,17.35
2018-08-20T04:09:38.975Z,17.33
2018-08-20T04:10:38.977Z,17.35
2018-08-20T04:11:39.067Z,17.33
2018-08-20T04:12:39.045Z,17.33
2018-08-20T04:13:38.971Z,17.35
2018-08-20T04:14:38.971Z,17.35
2018-08-20T04:15:39.041Z,17.35
2018-08-20T04:16:38.980Z,17.35
2018-08-20T04:17:38.979Z,17.37
2018-08-20T04:18:39.052Z,17.37
2018-08-20T04:19:38.980Z,17.37
2018-08-20T04:20:39.045Z,17.37
2018-08-20T04:21:38.979Z,17.39
2018-08-20T04:22:38.980Z,17.39
2018-08-20T04:23:39.049Z,17.39
2018-08-20T04:24:39.026Z,17.40
2018-08-20T04:25:38.981Z,17.44
2018-08-20T04:26:39.049Z,17.44
2018-08-20T04:27:38.983Z,17.46
2018-08-20T04:28:38.983Z,17.47
2018-08-20T04:29:39.053Z,17.49
2018-08-20T04:30:39.133Z,17.49
2018-08-20T04:31:39.053Z,17.50
2018-08-20T04:32:38.990Z,17.51
2018-08-20T04:33:38.987Z,17.49
2018-08-20T04:34:39.019Z,17.50
2018-08-20T04:35:38.983Z,17.50
2018-08-20T04:36:38.924Z,17.50
2018-08-20T04:37:39.023Z,17.50
2018-08-20T04:38:38.991Z,17.50
2018-08-20T04:39:39.007Z,17.50
2018-08-20T04:40:39.015Z,17.51
2018-08-20T04:41:39.025Z,17.53
2018-08-20T04:42:38.948Z,17.51
2018-08-20T04:43:38.987Z,17.51
2018-08-20T04:44:39.064Z,17.53
2018-08-20T04:45:39.065Z,17.53
2018-08-20T04:46:38.994Z,17.53
2018-08-20T04:47:39.064Z,17.54
2018-08-20T04:48:39.067Z,17.57
2018-08-20T04:49:38.995Z,17.57
2018-08-20T04:50:39.140Z,17.60
2018-08-20T04:51:38.995Z,17.60
2018-08-20T04:52:39.001Z,17.62
2018-08-20T04:53:39.069Z,17.65
2018-08-20T04:54:39.036Z,17.65
2018-08-20T04:55:39.068Z,17.68
2018-08-20T04:56:38.972Z,17.69
2018-08-20T04:57:39.069Z,17.72
2018-08-20T04:58:39.037Z,17.75
2018-08-20T04:59:39.016Z,17.73
2018-08-20T05:00:39.060Z,17.76
2018-08-20T05:01:39.018Z,17.77
2018-08-20T05:02:39.044Z,17.80
2018-08-20T05:03:39.001Z,17.83
2018-08-20T05:04:39.015Z,17.84
2018-08-20T05:05:39.075Z,17.87
2018-08-20T05:06:39.013Z,17.88
2018-08-20T05:07:38.958Z,17.88
2018-08-20T05:08:39.007Z,17.91
2018-08-20T05:09:39.081Z,17.94
2018-08-20T05:10:39.015Z,17.94
2018-08-20T05:11:39.080Z,17.96
2018-08-20T05:12:39.030Z,17.96
2018-08-20T05:13:39.088Z,17.98
2018-08-20T05:14:38.916Z,18.00
2018-08-20T05:15:39.004Z,18.02
2018-08-20T05:16:38.944Z,18.05
2018-08-20T05:17:39.100Z,18.07
2018-08-20T05:18:38.954Z,18.07
2018-08-20T05:19:38.974Z,18.10
2018-08-20T05:20:38.999Z,18.12
2018-08-20T05:21:39.031Z,18.13
2018-08-20T05:22:38.904Z,18.14
2018-08-20T05:23:38.953Z,18.14
2018-08-20T05:24:39.015Z,18.17
2018-08-20T05:25:39.025Z,18.20
2018-08-20T05:26:38.995Z,18.21
2018-08-20T05:27:39.053Z,18.23
2018-08-20T05:28:39.083Z,18.24
2018-08-20T05:29:38.974Z,18.24
2018-08-20T05:30:38.960Z,18.27
2018-08-20T05:31:39.033Z,18.29
2018-08-20T05:32:39.041Z,18.32
2018-08-20T05:33:39.081Z,18.35
2018-08-20T05:34:39.044Z,18.38
2018-08-20T05:35:39.101Z,18.38
2018-08-20T05:36:39.039Z,18.43
2018-08-20T05:37:39.102Z,18.46
2018-08-20T05:38:39.102Z,18.48
2018-08-20T05:39:39.033Z,18.51
2018-08-20T05:40:39.032Z,18.55
2018-08-20T05:41:39.043Z,18.57
2018-08-20T05:42:39.048Z,18.61
2018-08-20T05:43:39.105Z,18.64
2018-08-20T05:44:39.057Z,18.66
2018-08-20T05:45:39.030Z,18.70
2018-08-20T05:46:39.106Z,18.75
2018-08-20T05:47:39.105Z,18.79
2018-08-20T05:48:39.114Z,18.83
2018-08-20T05:49:39.108Z,18.87
2018-08-20T05:50:39.108Z,18.91
2018-08-20T05:51:39.110Z,18.97
2018-08-20T05:52:39.145Z,19.01
2018-08-20T05:53:39.111Z,19.05
2018-08-20T05:54:39.111Z,19.09
2018-08-20T05:55:39.041Z,19.13
2018-08-20T05:56:39.113Z,19.15
2018-08-20T05:57:39.044Z,19.20
2018-08-20T05:58:39.114Z,19.25
2018-08-20T05:59:39.049Z,19.29
2018-08-20T06:00:39.118Z,19.31
2018-08-20T06:01:39.047Z,19.35
2018-08-20T06:02:39.117Z,19.39
2018-08-20T06:03:39.117Z,19.43
2018-08-20T06:04:39.050Z,19.46
2018-08-20T06:05:39.119Z,19.49
2018-08-20T06:06:39.045Z,19.53
2018-08-20T06:07:39.120Z,19.54
2018-08-20T06:08:39.052Z,19.60
2018-08-20T06:09:39.052Z,19.65
2018-08-20T06:10:39.123Z,19.70
2018-08-20T06:11:39.124Z,19.73
2018-08-20T06:12:39.095Z,19.77
2018-08-20T06:13:39.056Z,19.83
2018-08-20T06:14:39.149Z,19.88
2018-08-20T06:15:39.009Z,19.91
2018-08-20T06:16:39.079Z,19.95
2018-08-20T06:17:39.130Z,19.99
2018-08-20T06:18:39.060Z,20.02
2018-08-20T06:19:39.127Z,20.07
2018-08-20T06:20:39.062Z,20.12
2018-08-20T06:21:39.132Z,20.16
2018-08-20T06:22:39.085Z,20.18
2018-08-20T06:23:39.129Z,20.21
2018-08-20T06:24:39.063Z,20.25
2018-08-20T06:25:39.132Z,20.28
2018-08-20T06:26:39.132Z,20.32
2018-08-20T06:27:39.063Z,20.36
2018-08-20T06:28:39.183Z,20.39
2018-08-20T06:29:39.135Z,20.43
2018-08-20T06:30:39.164Z,20.46
2018-08-20T06:31:39.070Z,20.49
2018-08-20T06:32:39.139Z,20.52
2018-08-20T06:33:39.139Z,20.54
2018-08-20T06:34:39.082Z,20.57
2018-08-20T06:35:39.013Z,20.57
2018-08-20T06:36:39.000Z,20.58
2018-08-20T06:37:38.994Z,20.60
2018-08-20T06:38:39.089Z,20.61
2018-08-20T06:39:39.084Z,20.65
2018-08-20T06:40:39.065Z,20.69
2018-08-20T06:41:39.068Z,20.70
2018-08-20T06:42:39.043Z,20.73
2018-08-20T06:43:38.995Z,20.77
2018-08-20T06:44:39.102Z,20.82
2018-08-20T06:45:39.056Z,20.86
2018-08-20T06:46:39.035Z,20.91
2018-08-20T06:47:39.054Z,20.95
2018-08-20T06:48:39.042Z,21.02
2018-08-20T06:49:39.098Z,21.05
2018-08-20T06:50:39.061Z,21.09
2018-08-20T06:51:39.147Z,21.10
2018-08-20T06:52:39.032Z,21.09
2018-08-20T06:53:39.126Z,21.10
2018-08-20T06:54:39.239Z,21.13
2018-08-20T06:55:39.153Z,21.13
2018-08-20T06:56:39.157Z,21.14
2018-08-20T06:57:39.108Z,21.14
2018-08-20T06:58:39.157Z,21.09
2018-08-20T06:59:39.091Z,21.09
2018-08-20T07:00:39.205Z,21.06
2018-08-20T07:01:39.115Z,21.06
2018-08-20T07:02:39.094Z,21.02
2018-08-20T07:03:39.161Z,20.99
2018-08-20T07:04:39.106Z,20.95
2018-08-20T07:05:39.085Z,20.94
2018-08-20T07:09:39.137Z,20.97
2018-08-20T07:10:39.095Z,20.99
2018-08-20T07:11:39.092Z,21.04
2018-08-20T07:12:39.094Z,21.06
2018-08-20T07:13:39.165Z,21.08
2018-08-20T07:14:39.169Z,21.10
2018-08-20T07:15:39.096Z,21.08
2018-08-20T07:16:39.168Z,21.09
2018-08-20T07:17:39.105Z,21.09
2018-08-20T07:18:39.169Z,21.10
2018-08-20T07:19:39.160Z,21.13
2018-08-20T07:20:39.172Z,21.08
2018-08-20T07:21:39.102Z,21.06
2018-08-20T07:22:39.113Z,21.06
2018-08-20T07:23:39.493Z,21.01
2018-08-20T07:24:39.107Z,20.97
2018-08-20T07:25:39.174Z,20.93
2018-08-20T07:26:39.107Z,20.90
2018-08-20T07:27:39.180Z,20.87
2018-08-20T07:28:39.179Z,20.80
2018-08-20T07:29:39.107Z,20.76
2018-08-20T07:30:39.178Z,20.73
2018-08-20T07:31:39.179Z,20.73
2018-08-20T07:32:39.179Z,20.73
2018-08-20T07:33:39.069Z,20.75
2018-08-20T07:34:39.109Z,20.73
2018-08-20T07:35:39.184Z,20.75
2018-08-20T07:36:39.140Z,20.76
2018-08-20T07:37:39.115Z,20.76
2018-08-20T07:38:39.115Z,20.75
2018-08-20T07:39:39.184Z,20.76
2018-08-20T07:40:39.161Z,20.77
2018-08-20T07:41:39.117Z,20.80
2018-08-20T07:42:39.188Z,20.84
2018-08-20T07:43:39.187Z,20.87
2018-08-20T07:44:39.190Z,20.90
2018-08-20T07:45:39.145Z,20.95
2018-08-20T07:46:39.098Z,20.99
2018-08-20T07:47:39.071Z,21.05
2018-08-20T07:48:39.068Z,21.06
2018-08-20T07:49:39.117Z,21.08
2018-08-20T07:50:39.146Z,21.13
2018-08-20T07:51:39.054Z,21.17
2018-08-20T07:52:39.119Z,21.21
2018-08-20T07:53:39.100Z,21.24
2018-08-20T07:54:39.128Z,21.28
2018-08-20T07:55:39.291Z,21.32
2018-08-20T07:56:39.148Z,21.39
2018-08-20T07:57:39.196Z,21.39
2018-08-20T07:58:39.171Z,21.40
2018-08-20T07:59:39.197Z,21.42
2018-08-20T08:00:39.124Z,21.46
2018-08-20T08:01:39.201Z,21.49
2018-08-20T08:02:39.130Z,21.53
2018-08-20T08:03:39.081Z,21.58
2018-08-20T08:04:39.075Z,21.62
2018-08-20T08:05:39.107Z,21.67
2018-08-20T08:06:39.057Z,21.76
2018-08-20T08:07:39.135Z,21.83
2018-08-20T08:08:39.072Z,21.93
2018-08-20T08:09:39.018Z,21.97
2018-08-20T08:10:39.127Z,22.01
2018-08-20T08:11:39.114Z,22.08
2018-08-20T08:12:39.086Z,22.12
2018-08-20T08:13:39.073Z,22.14
2018-08-20T08:14:39.217Z,22.17
2018-08-20T08:15:39.138Z,22.19
2018-08-20T08:16:39.091Z,22.24
2018-08-20T08:17:39.135Z,22.20
2018-08-20T08:18:39.217Z,22.14
2018-08-20T08:19:39.151Z,22.16
2018-08-20T08:20:39.214Z,22.12
2018-08-20T08:21:39.139Z,22.12
2018-08-20T08:22:39.210Z,22.14
2018-08-20T08:23:39.214Z,22.12
2018-08-20T08:24:39.214Z,22.04
2018-08-20T08:25:39.303Z,22.04
2018-08-20T08:26:39.217Z,21.98
2018-08-20T08:27:39.220Z,21.93
2018-08-20T08:28:39.145Z,21.86
2018-08-20T08:29:39.217Z,21.84
2018-08-20T08:30:39.144Z,21.82
2018-08-20T08:31:39.220Z,21.78
2018-08-20T08:32:39.152Z,21.72
2018-08-20T08:33:39.152Z,21.67
2018-08-20T08:34:39.224Z,21.62
2018-08-20T08:35:39.154Z,21.57
2018-08-20T08:36:39.155Z,21.57
2018-08-20T08:37:39.223Z,21.53
2018-08-20T08:38:39.257Z,21.54
2018-08-20T08:39:39.172Z,21.54
2018-08-20T08:40:39.228Z,21.47
2018-08-20T08:41:39.160Z,21.46
2018-08-20T08:42:39.226Z,21.45
2018-08-20T08:43:39.152Z,21.45
2018-08-20T08:44:39.192Z,21.47
2018-08-20T08:45:39.171Z,21.50
2018-08-20T08:46:39.074Z,21.51
2018-08-20T08:47:39.166Z,21.56
2018-08-20T08:48:39.186Z,21.61
2018-08-20T08:49:39.168Z,21.67
2018-08-20T08:50:39.188Z,21.69
2018-08-20T08:51:39.190Z,21.71
2018-08-20T08:52:39.161Z,21.71
2018-08-20T08:53:39.175Z,21.72
2018-08-20T08:54:39.180Z,21.75
2018-08-20T08:55:39.163Z,21.76
2018-08-20T08:56:39.164Z,21.78
2018-08-20T08:57:39.237Z,21.82
2018-08-20T08:58:39.239Z,21.82
2018-08-20T08:59:39.190Z,21.83
2018-08-20T09:00:39.289Z,21.89
2018-08-20T09:01:39.168Z,21.90
2018-08-20T09:02:39.169Z,21.96
2018-08-20T09:03:39.245Z,21.97
2018-08-20T09:04:39.167Z,22.06
2018-08-20T09:05:39.217Z,22.10
2018-08-20T09:06:39.245Z,22.19
2018-08-20T09:07:39.244Z,22.28
2018-08-20T09:08:39.179Z,22.35
2018-08-20T09:09:39.186Z,22.46
2018-08-20T09:10:39.253Z,22.50
2018-08-20T09:11:39.251Z,22.43
2018-08-20T09:12:39.196Z,22.41
2018-08-20T09:13:39.295Z,22.42
2018-08-20T09:14:39.293Z,22.43
2018-08-20T09:15:39.250Z,22.43
2018-08-20T09:16:39.179Z,22.49
2018-08-20T09:17:39.252Z,22.53
2018-08-20T09:18:39.184Z,22.59
2018-08-20T09:19:39.255Z,22.67
2018-08-20T09:20:39.194Z,22.75
2018-08-20T09:21:39.258Z,22.70
2018-08-20T09:22:39.260Z,22.70
2018-08-20T09:23:39.188Z,22.68
2018-08-20T09:24:39.274Z,22.65
2018-08-20T09:25:39.194Z,22.67
2018-08-20T09:26:39.257Z,22.67
2018-08-20T09:27:39.188Z,22.75
2018-08-20T09:28:39.262Z,22.83
2018-08-20T09:29:39.184Z,22.86
2018-08-20T09:30:39.188Z,22.90
2018-08-20T09:31:39.262Z,22.91
2018-08-20T09:32:39.191Z,22.93
2018-08-20T09:33:39.271Z,22.91
2018-08-20T09:34:39.193Z,22.94
2018-08-20T09:35:39.234Z,22.83
2018-08-20T09:36:39.214Z,22.79
2018-08-20T09:37:39.266Z,22.72
2018-08-20T09:38:39.192Z,22.68
2018-08-20T09:39:39.196Z,22.65
2018-08-20T09:40:39.271Z,22.60
2018-08-20T09:41:39.221Z,22.56
2018-08-20T09:42:39.270Z,22.56
2018-08-20T09:43:39.206Z,22.46
2018-08-20T09:44:39.277Z,22.42
2018-08-20T09:45:39.173Z,22.41
2018-08-20T09:46:39.324Z,22.48
2018-08-20T09:47:39.201Z,22.56
2018-08-20T09:48:39.175Z,22.63
2018-08-20T09:49:39.276Z,22.64
2018-08-20T09:50:39.163Z,22.70
2018-08-20T09:51:39.211Z,22.67
2018-08-20T09:52:39.176Z,22.71
2018-08-20T09:53:39.250Z,22.68
2018-08-20T09:54:39.177Z,22.65
2018-08-20T09:55:39.238Z,22.63
2018-08-20T09:56:39.229Z,22.63
2018-08-20T09:57:39.226Z,22.65
2018-08-20T09:58:39.169Z,22.71
2018-08-20T09:59:39.240Z,22.76
2018-08-20T10:00:39.190Z,22.71
2018-08-20T10:01:39.282Z,22.70
2018-08-20T10:02:39.208Z,22.65
2018-08-20T10:03:39.211Z,22.65
2018-08-20T10:04:39.263Z,22.68
2018-08-20T10:05:39.188Z,22.77
2018-08-20T10:06:39.192Z,22.84
2018-08-20T10:07:39.249Z,22.84
2018-08-20T10:08:39.259Z,22.91
2018-08-20T10:09:39.305Z,22.94
2018-08-20T10:10:39.175Z,22.94
2018-08-20T10:11:39.279Z,22.91
2018-08-20T10:12:39.275Z,22.94
2018-08-20T10:13:39.282Z,22.94
2018-08-20T10:14:39.216Z,22.94
2018-08-20T10:15:39.293Z,22.97
2018-08-20T10:16:39.224Z,22.97
2018-08-20T10:17:39.297Z,22.90
2018-08-20T10:18:39.228Z,22.88
2018-08-20T10:19:39.297Z,22.88
2018-08-20T10:20:39.233Z,22.82
2018-08-20T10:21:39.298Z,22.83
2018-08-20T10:22:39.232Z,22.82
2018-08-20T10:23:39.298Z,22.79
2018-08-20T10:24:39.309Z,22.84
2018-08-20T10:25:39.284Z,22.87
2018-08-20T10:26:39.252Z,22.95
2018-08-20T10:27:39.269Z,23.01
2018-08-20T10:28:39.199Z,22.97
2018-08-20T10:29:39.275Z,22.97
2018-08-20T10:30:39.265Z,22.95
2018-08-20T10:31:39.306Z,23.00
2018-08-20T10:32:39.271Z,23.06
2018-08-20T10:33:39.276Z,23.16
2018-08-20T10:34:39.240Z,23.23
2018-08-20T10:35:39.186Z,23.22
2018-08-20T10:36:39.136Z,23.28
2018-08-20T10:37:39.281Z,23.30
2018-08-20T10:38:39.185Z,23.35
2018-08-20T10:39:39.215Z,23.38
2018-08-20T10:40:39.132Z,23.45
2018-08-20T10:41:39.238Z,23.58
2018-08-20T10:42:39.135Z,23.58
2018-08-20T10:43:39.227Z,23.67
2018-08-20T10:44:39.250Z,23.80
2018-08-20T10:45:39.248Z,23.86
2018-08-20T10:46:39.244Z,23.97
2018-08-20T10:47:39.317Z,24.07
2018-08-20T10:48:39.241Z,24.18
2018-08-20T10:49:39.363Z,24.19
2018-08-20T10:50:39.275Z,24.19
2018-08-20T10:51:39.342Z,24.30
2018-08-20T10:52:39.319Z,24.34
2018-08-20T10:53:39.250Z,24.41
2018-08-20T10:54:39.243Z,24.38
2018-08-20T10:55:39.253Z,24.34
2018-08-20T10:56:39.325Z,24.34
2018-08-20T10:57:39.253Z,24.34
2018-08-20T10:58:39.324Z,24.34
2018-08-20T10:59:39.259Z,24.34
2018-08-20T11:00:39.330Z,24.36
2018-08-20T11:01:39.259Z,24.22
2018-08-20T11:02:39.328Z,24.05
2018-08-20T11:03:39.278Z,24.07
2018-08-20T11:04:39.262Z,24.12
2018-08-20T11:05:39.330Z,24.12
2018-08-20T11:06:39.331Z,24.12
2018-08-20T11:07:39.266Z,24.07
2018-08-20T11:08:39.330Z,24.12
2018-08-20T11:09:39.278Z,24.22
2018-08-20T11:10:39.389Z,24.19
2018-08-20T11:11:39.335Z,24.04
2018-08-20T11:12:39.265Z,23.97
2018-08-20T11:13:39.335Z,23.91
2018-08-20T11:14:39.279Z,24.02
2018-08-20T11:15:39.338Z,24.07
2018-08-20T11:16:39.263Z,24.16
2018-08-20T11:17:39.341Z,24.25
2018-08-20T11:18:39.283Z,24.31
2018-08-20T11:19:39.349Z,24.37
2018-08-20T11:20:39.266Z,24.45
2018-08-20T11:21:39.344Z,24.49
2018-08-20T11:22:39.341Z,24.60
2018-08-20T11:23:39.271Z,24.67
2018-08-20T11:24:39.346Z,24.66
2018-08-20T11:25:39.295Z,24.63
2018-08-20T11:26:39.204Z,24.67
2018-08-20T11:27:39.358Z,24.64
2018-08-20T11:28:39.270Z,24.54
2018-08-20T11:29:39.304Z,24.53
2018-08-20T11:30:39.268Z,24.47
2018-08-20T11:31:39.331Z,24.41
2018-08-20T11:32:39.234Z,24.47
2018-08-20T11:33:39.304Z,24.45
2018-08-20T11:34:39.256Z,24.47
2018-08-20T11:35:39.351Z,24.57
2018-08-20T11:36:39.380Z,24.63
2018-08-20T11:37:39.354Z,24.74
2018-08-20T11:38:39.284Z,24.79
2018-08-20T11:39:39.356Z,24.83
2018-08-20T11:40:39.440Z,24.91
2018-08-20T11:41:39.353Z,25.00
2018-08-20T11:42:39.285Z,24.97
2018-08-20T11:43:39.354Z,25.05
2018-08-20T11:44:39.332Z,25.15
2018-08-20T11:45:39.310Z,25.09
2018-08-20T11:46:39.297Z,24.94
2018-08-20T11:47:39.257Z,24.89
2018-08-20T11:48:39.241Z,24.86
2018-08-20T11:49:39.283Z,24.91
2018-08-20T11:50:39.263Z,24.79
2018-08-20T11:51:39.386Z,24.81
2018-08-20T11:52:39.253Z,24.81
2018-08-20T11:53:39.228Z,24.63
2018-08-20T11:54:39.230Z,24.67
2018-08-20T11:55:39.301Z,24.64
2018-08-20T11:56:39.232Z,24.68
2018-08-20T11:57:39.274Z,24.77
2018-08-20T11:58:39.270Z,24.64
2018-08-20T11:59:39.273Z,24.54
2018-08-20T12:00:39.231Z,24.45
2018-08-20T12:01:39.243Z,24.37
2018-08-20T12:02:39.297Z,24.26
2018-08-20T12:03:39.274Z,24.20
2018-08-20T12:04:39.201Z,24.11
2018-08-20T12:05:39.253Z,24.02
2018-08-20T12:06:39.274Z,23.97
2018-08-20T12:07:39.392Z,23.93
2018-08-20T12:08:39.332Z,23.91
2018-08-20T12:09:39.302Z,23.93
2018-08-20T12:10:39.304Z,24.01
2018-08-20T12:11:39.257Z,24.05
2018-08-20T12:12:39.365Z,24.09
2018-08-20T12:13:39.345Z,24.02
2018-08-20T12:14:39.237Z,24.02
2018-08-20T12:15:39.377Z,23.97
2018-08-20T12:16:39.377Z,23.96
2018-08-20T12:17:39.313Z,23.98
2018-08-20T12:18:39.316Z,24.01
2018-08-20T12:19:39.379Z,24.04
2018-08-20T12:20:39.313Z,24.00
2018-08-20T12:21:39.382Z,23.94
2018-08-20T12:22:39.382Z,23.90
2018-08-20T12:23:39.315Z,23.91
2018-08-20T12:24:39.383Z,23.91
2018-08-20T12:25:39.314Z,23.87
2018-08-20T12:26:39.382Z,23.87
2018-08-20T12:27:39.320Z,23.89
2018-08-20T12:28:39.386Z,23.80
2018-08-20T12:29:39.319Z,23.79
2018-08-20T12:30:39.386Z,23.82
2018-08-20T12:31:39.309Z,23.89
2018-08-20T12:32:39.312Z,23.85
2018-08-20T12:33:39.387Z,23.83
2018-08-20T12:34:39.342Z,23.75
2018-08-20T12:35:39.393Z,23.72
2018-08-20T12:36:39.365Z,23.71
2018-08-20T12:37:39.390Z,23.69
2018-08-20T12:38:39.327Z,23.68
2018-08-20T12:39:39.392Z,23.68
2018-08-20T12:40:39.328Z,23.68
2018-08-20T12:41:39.399Z,23.58
2018-08-20T12:42:39.325Z,23.60
2018-08-20T12:43:39.395Z,23.54
2018-08-20T12:44:39.327Z,23.54
2018-08-20T12:45:39.399Z,23.54
2018-08-20T12:46:39.403Z,23.54
2018-08-20T12:47:39.341Z,23.54
2018-08-20T12:48:39.400Z,23.54
2018-08-20T12:49:39.400Z,23.53
2018-08-20T12:50:39.336Z,23.53
2018-08-20T12:51:39.422Z,23.51
2018-08-20T12:52:39.324Z,23.50
2018-08-20T12:53:39.403Z,23.49
2018-08-20T12:54:39.287Z,23.49
2018-08-20T12:55:39.283Z,23.50